الصفحة الرئيسية
METAR-TAF:

METAR-TAF

مطار :

مطار منيابولس-سنت بول الدولي

مينيابولس, مينيسوتا, الولايات المتحدة

دائرة عرض: 44-52-59N, خط طول: 093-13-44W, ارتفاع: 256 متر

مراقبة الطقس الحالي

تاريخ ووقت الإصدار 1ساعة و 2 دقيقة قبل الساعة 03:53UTC
رياح هادئة
درجة الحرارة 23°درجة مئوية
الرطوبة 69%
ضغط 1019 hPa
الرؤية: 16.1 كم
غيوم قليلة على ارتفاع 30000 قدم

METAR: KMSP 180353Z 00000KT 10SM FEW300 23/17 A3008 RMK AO2 SLP180 T02330172

زمن: 23:55 (04:55 UTC)

توقعات

تاريخ ووقت الإصدار 2ساعات و 25 دقيقة قبل الساعة 02:30UTC
التوقعات صالحة من18 الساعة 02 UTC إلى 19 الساعة 06 UTC
ريح 3 عقدةمن اتجاهات متغيرة
الرؤية: 10 كم
غيوم قليلة على ارتفاع 30000 قدم
من 18 الساعة 1800 UTC
ريح 5 عقدة من الشرق/الجنوب الشرقي
الرؤية: 10 كم
غيوم قليلة على ارتفاع 5000 قدم
غيوم متفرقة على ارتفاع 25000 قدم
من 18 الساعة 2100 UTC
ريح 5 عقدة من الجنوب/الجنوب الشرقي
الرؤية: 10 كم
غيوم متفرقة على ارتفاع 25000 قدم

TAF: KMSP 180230Z 1802/1906 VRB03KT P6SM FEW300 FM181800 12005KT P6SM FEW050 SCT250 FM182100 16005KT P6SM SCT250

أرصاد الطقس والتوقعات من أكثر من 4000 مطار (تقارير الطقس للمطار METAR والتنبؤ بالطقس بالمطارTAF).

المحطات المتاحة هي النقط الصفراء والحمراء على الخريطة.

حرك المؤشر فوق النقطة لمعرفة اسم المحطة.

ثم انقر لمعرفة أرصاد وتوقعات الطقس.

لتغيير الخارطة: اضغط على الأزرار الخضراء مع رمز الصليب الأسود للتكبير. على الزر الأخضر مع شرطة للتصغير، أو على الأسهم الخضراء للخرائط المجاورة.


METAR-TAF: